VNTH weather

Public forecast

Using degrees Celsius for public forecast. Weather courtesy of forecast.io.

Closest aviation weather report (METAR) to Thamkharka Airport

Report is more than 6 hours old.

Closest report is Bagdogra Airport, 81.8 nm (151.5 km) ESE. Retrieved 2020/08/13 10:30 UTC (6 hours ago):

VEBD 131030Z 09003KT 6000 FEW020 FEW030TCU SCT030 33/26 Q0997 NOSIG

Closest aviation forecast (TAF) to Thamkharka Airport

Closest forecast is Bagdogra Airport, 81.8 nm (151.5 km) ESE. Retrieved 2020/08/13 12:30 UTC (4 hours ago):

TAF VEBD 130930Z 1312/1324 10005KT 6000 SCT025 SCT080 TEMPO 1313/1315 3000 TSRA SCT020 FEW030CB SCT080